Ide Min — PC8366 — position and weather

sailwx.info

Track history (hours):
 
Tides and Currents Weather Stations Pressure Air Temp Water Temp Dewpoint Dewpoint Depression Visibility Wind Speed Wind Dir Waves Ship Positions

Ide Min (Netherlands)

Ship's website: http://www.idemin.nl/english/english.html

Last reported at 2018-Jun-16 02:29 UTC. Time now 2018-Jun-20 20:23 UTC.
Position N 54°22' E 010°09'.

Length 40 m; draft 2.4 m.

MMSI: 244537000.

Date/timePositionNaut miles runAvg speedWind from/ knotsBaromVisibWave heightAir tempDewpointWater temp
2018-Jun-16 02:29N 54°22' E 010°09'0 0.0
2018-Jun-16 01:35N 54°22' E 010°09'0 0.0
2018-Jun-16 01:30N 54°22' E 010°09'19 0.6
2018-Jun-14 16:44N 54°41' E 010°04'1 3.8
2018-Jun-14 16:30N 54°41' E 010°05'1 2.9
2018-Jun-14 16:00N 54°41' E 010°08'9 4.2
2018-Jun-14 13:54N 54°49' E 009°59'2 5.5
2018-Jun-14 13:30N 54°48' E 010°03'2 4.9
2018-Jun-14 13:00N 54°48' E 010°07'3 5.0
2018-Jun-14 12:30N 54°49' E 010°12'3 5.5
2018-Jun-14 12:00N 54°49' E 010°16'3 5.3
2018-Jun-14 11:30N 54°49' E 010°21'3 5.9
2018-Jun-14 11:00N 54°49' E 010°26'3 5.1
2018-Jun-14 10:30N 54°49' E 010°31'2 4.0
2018-Jun-14 10:00N 54°49' E 010°34'1 2.7
2018-Jun-14 09:30N 54°49' E 010°36'1 2.4
2018-Jun-14 09:00N 54°49' E 010°35'2 3.3
2018-Jun-14 08:30N 54°51' E 010°33'1 2.1
2018-Jun-14 08:00N 54°51' E 010°31'0 0.0
2018-Jun-14 07:30N 54°51' E 010°31'0 0.0
2018-Jun-14 07:00N 54°51' E 010°31'0 0.0
2018-Jun-14 06:24N 54°51' E 010°31'0 0.0
2018-Jun-14 06:00N 54°51' E 010°31'0 0.0
2018-Jun-14 05:27N 54°51' E 010°31'0 0.0
2018-Jun-14 05:00N 54°51' E 010°31'0 0.0
2018-Jun-14 04:30N 54°51' E 010°31'0 0.0
2018-Jun-14 04:00N 54°51' E 010°31'0 0.0
2018-Jun-14 03:30N 54°51' E 010°31'0 0.0
2018-Jun-14 03:00N 54°51' E 010°31'0 0.0
2018-Jun-14 02:30N 54°51' E 010°31'0 0.0
2018-Jun-14 01:57N 54°51' E 010°31'0 0.0
2018-Jun-14 01:30N 54°51' E 010°31'0 0.0
2018-Jun-14 01:00N 54°51' E 010°31'0 0.0
2018-Jun-14 00:30N 54°51' E 010°31'0 0.0
2018-Jun-14 00:00N 54°51' E 010°31'0 0.0
2018-Jun-13 23:27N 54°51' E 010°31'0 0.0
2018-Jun-13 23:00N 54°51' E 010°31'0 0.0
2018-Jun-13 22:30N 54°51' E 010°31'0 0.0
2018-Jun-13 22:00N 54°51' E 010°31'0 0.0
2018-Jun-13 21:30N 54°51' E 010°31'0 0.0
2018-Jun-13 21:00N 54°51' E 010°31'0 0.0
2018-Jun-13 20:30N 54°51' E 010°31'0 0.0
2018-Jun-13 19:57N 54°51' E 010°31'0 0.0
2018-Jun-13 19:30N 54°51' E 010°31'0 0.0
2018-Jun-13 19:00N 54°51' E 010°31'0 0.0
2018-Jun-13 18:30N 54°51' E 010°31'0 0.0
2018-Jun-13 17:57N 54°51' E 010°31'0 0.0
2018-Jun-13 17:30N 54°51' E 010°31'0 0.0
2018-Jun-13 17:00N 54°51' E 010°31'0 0.0
2018-Jun-13 16:27N 54°51' E 010°31'0 0.0
2018-Jun-13 16:00N 54°51' E 010°31'0 0.0
2018-Jun-13 15:30N 54°51' E 010°31'0 0.0
2018-Jun-13 14:57N 54°51' E 010°31'0 0.0
2018-Jun-13 14:30N 54°51' E 010°31'0 0.0
2018-Jun-13 14:00N 54°51' E 010°31'0 0.0
2018-Jun-13 13:30N 54°51' E 010°31'0 0.0
2018-Jun-13 13:00N 54°51' E 010°31'0 0.0
2018-Jun-13 12:30N 54°51' E 010°31'0 0.0
2018-Jun-13 12:00N 54°51' E 010°31'0 0.0
2018-Jun-13 11:31N 54°51' E 010°31'1 1.0
2018-Jun-13 11:00N 54°52' E 010°31'1 2.8
2018-Jun-13 10:30N 54°52' E 010°33'1 2.2
2018-Jun-13 10:01N 54°53' E 010°33'2 3.6
2018-Jun-13 09:30N 54°55' E 010°31'2 3.9
2018-Jun-13 09:00N 54°56' E 010°29'2 3.5
2018-Jun-13 08:29N 54°58' E 010°27'0 0.5
2018-Jun-13 07:59N 54°58' E 010°26'0 0.0
2018-Jun-13 07:31N 54°58' E 010°26'0 0.0
2018-Jun-13 07:00N 54°58' E 010°26'0 0.0
2018-Jun-13 06:30N 54°58' E 010°26'0 0.0
2018-Jun-13 06:01N 54°58' E 010°26'0 0.0
2018-Jun-13 05:30N 54°58' E 010°26'0 0.0
2018-Jun-13 05:00N 54°58' E 010°26'0 0.0
2018-Jun-13 04:31N 54°58' E 010°26'0 0.0
2018-Jun-13 04:00N 54°58' E 010°26'0 0.0
2018-Jun-13 03:31N 54°58' E 010°26'0 0.0
2018-Jun-13 03:01N 54°58' E 010°26'0 0.0
2018-Jun-13 02:30N 54°58' E 010°26'0 0.0
2018-Jun-13 02:01N 54°58' E 010°26'0 0.0
2018-Jun-13 01:31N 54°58' E 010°26'0 0.0
2018-Jun-13 01:00N 54°58' E 010°26'0 0.0
2018-Jun-13 00:30N 54°58' E 010°26'0 0.0
2018-Jun-13 00:01N 54°58' E 010°26'0 0.0
2018-Jun-12 23:31N 54°58' E 010°26'0 0.0
2018-Jun-12 23:00N 54°58' E 010°26'0 0.0
2018-Jun-12 22:31N 54°58' E 010°26'0 0.0
2018-Jun-12 22:01N 54°58' E 010°26'0 0.0
2018-Jun-12 21:31N 54°58' E 010°26'0 0.0
2018-Jun-12 21:00N 54°58' E 010°26'0 0.0
2018-Jun-12 20:30N 54°58' E 010°26'0 0.0
2018-Jun-12 20:00N 54°58' E 010°26'0 0.0
2018-Jun-12 18:56N 54°58' E 010°26'0 0.0
2018-Jun-12 18:31N 54°58' E 010°26'0 0.0
2018-Jun-12 18:00N 54°58' E 010°26'0 0.0
2018-Jun-12 17:30N 54°58' E 010°26'0 0.0
2018-Jun-12 17:00N 54°58' E 010°26'0 0.0
2018-Jun-12 16:31N 54°58' E 010°26'0 0.8
2018-Jun-12 16:01N 54°58' E 010°27'2 4.4
2018-Jun-12 15:30N 54°59' E 010°30'2 3.4
2018-Jun-12 15:01N 55°01' E 010°30'1 3.0
2018-Jun-12 14:31N 54°60' E 010°30'2 4.5
2018-Jun-12 13:59N 54°58' E 010°27'  
2018-Jun-10 08:25N 54°22' E 010°09'0 0.0
2018-Jun-10 07:55N 54°22' E 010°09'0 0.0
2018-Jun-10 07:19N 54°22' E 010°09'0 0.0
2018-Jun-10 04:40N 54°22' E 010°09'0 0.0
2018-Jun-10 04:16N 54°22' E 010°09'0 0.0
2018-Jun-10 03:19N 54°22' E 010°09'0 0.0
2018-Jun-10 02:55N 54°22' E 010°09'0 0.0
2018-Jun-10 02:28N 54°22' E 010°09'0 0.0
2018-Jun-10 01:58N 54°22' E 010°09'0 0.0
2018-Jun-10 01:19N 54°22' E 010°09'0 0.0
2018-Jun-10 00:58N 54°22' E 010°09'0 0.0
2018-Jun-10 00:22N 54°22' E 010°09'0 0.0
2018-Jun-09 23:55N 54°22' E 010°09'0 0.0
2018-Jun-09 23:28N 54°22' E 010°09'0 0.0
2018-Jun-09 22:58N 54°22' E 010°09'0 0.0
2018-Jun-09 22:19N 54°22' E 010°09'0 0.0
2018-Jun-09 21:52N 54°22' E 010°09'0 0.0
2018-Jun-09 21:28N 54°22' E 010°09'0 0.0
2018-Jun-09 20:07N 54°22' E 010°09'0 0.0
2018-Jun-09 19:58N 54°22' E 010°09'0 0.0
2018-Jun-09 19:25N 54°22' E 010°09'0 0.0
2018-Jun-09 06:49N 54°22' E 010°09'0 0.0
2018-Jun-09 06:13N 54°22' E 010°09'0 0.0
2018-Jun-09 05:10N 54°22' E 010°09'0 0.0
2018-Jun-09 04:31N 54°22' E 010°09'0 0.0
2018-Jun-09 04:19N 54°22' E 010°09'0 0.0
2018-Jun-09 03:55N 54°22' E 010°09'0 0.0
2018-Jun-09 03:28N 54°22' E 010°09'0 0.0
2018-Jun-09 02:58N 54°22' E 010°09'0 0.0
2018-Jun-09 02:22N 54°22' E 010°09'0 0.0
2018-Jun-09 01:58N 54°22' E 010°09'0 0.0
2018-Jun-09 01:28N 54°22' E 010°09'0 0.0
2018-Jun-09 00:55N 54°22' E 010°09'0 0.0
2018-Jun-09 00:28N 54°22' E 010°09'0 0.0
2018-Jun-08 23:34N 54°22' E 010°09'0 0.0
2018-Jun-08 23:19N 54°22' E 010°09'0 0.0
2018-Jun-08 22:58N 54°22' E 010°09'0 0.0
2018-Jun-08 04:16N 54°22' E 010°09'0 0.0
2018-Jun-08 03:55N 54°22' E 010°09'0 0.0
2018-Jun-08 03:28N 54°22' E 010°09'0 0.0
2018-Jun-08 02:55N 54°22' E 010°09'0 0.0
2018-Jun-08 02:28N 54°22' E 010°09'0 0.0
2018-Jun-08 00:37N 54°22' E 010°09'0 0.0
2018-Jun-08 00:28N 54°22' E 010°09'0 0.0
2018-Jun-07 23:58N 54°22' E 010°09'0 0.0
2018-Jun-07 23:28N 54°22' E 010°09'0 0.0
2018-Jun-07 22:55N 54°22' E 010°09'0 0.0
2018-Jun-07 21:55N 54°22' E 010°09'0 0.0
2018-Jun-07 05:43N 54°22' E 010°09'0 0.0
2018-Jun-07 03:25N 54°22' E 010°09'0 0.0
2018-Jun-07 02:43N 54°22' E 010°09'0 0.0
2018-Jun-07 01:55N 54°22' E 010°09'0 0.0
2018-Jun-07 00:52N 54°22' E 010°09'0 0.0
2018-Jun-07 00:19N 54°22' E 010°09'0 0.0
2018-Jun-06 23:49N 54°22' E 010°09'0 0.0
2018-Jun-06 23:22N 54°22' E 010°09'0 0.0
2018-Jun-06 22:52N 54°22' E 010°09'0 0.0
2018-Jun-06 22:13N 54°22' E 010°09'0 0.0
2018-Jun-06 21:52N 54°22' E 010°09'0 0.0
2018-Jun-06 21:28N 54°22' E 010°09'0 0.0
2018-Jun-06 07:28N 54°22' E 010°09'0 0.0
2018-Jun-06 06:46N 54°22' E 010°09'0 0.0
2018-Jun-06 06:31N 54°22' E 010°09'0 0.0
2018-Jun-06 06:01N 54°22' E 010°09'  
Track history (hours):
 
Tides and Currents Weather Stations Pressure Air Temp Water Temp Dewpoint Dewpoint Depression Visibility Wind Speed Wind Dir Waves Ship Positions

Ide Min (Netherlands)

Ship's website: http://www.idemin.nl/english/english.html

Last reported at 2018-Jun-16 02:29 UTC. Time now 2018-Jun-20 20:23 UTC.
Position N 54°22' E 010°09'.

Length 40 m; draft 2.4 m.

MMSI: 244537000.

Date/timePositionNaut miles runAvg speedWind from/ knotsBaromVisibWave heightAir tempDewpointWater temp
2018-Jun-16 02:29N 54°22' E 010°09'0 0.0
2018-Jun-16 01:35N 54°22' E 010°09'0 0.0
2018-Jun-16 01:30N 54°22' E 010°09'19 0.6
2018-Jun-14 16:44N 54°41' E 010°04'1 3.8
2018-Jun-14 16:30N 54°41' E 010°05'1 2.9
2018-Jun-14 16:00N 54°41' E 010°08'9 4.2
2018-Jun-14 13:54N 54°49' E 009°59'2 5.5
2018-Jun-14 13:30N 54°48' E 010°03'2 4.9
2018-Jun-14 13:00N 54°48' E 010°07'3 5.0
2018-Jun-14 12:30N 54°49' E 010°12'3 5.5
2018-Jun-14 12:00N 54°49' E 010°16'3 5.3
2018-Jun-14 11:30N 54°49' E 010°21'3 5.9
2018-Jun-14 11:00N 54°49' E 010°26'3 5.1
2018-Jun-14 10:30N 54°49' E 010°31'2 4.0
2018-Jun-14 10:00N 54°49' E 010°34'1 2.7
2018-Jun-14 09:30N 54°49' E 010°36'1 2.4
2018-Jun-14 09:00N 54°49' E 010°35'2 3.3
2018-Jun-14 08:30N 54°51' E 010°33'1 2.1
2018-Jun-14 08:00N 54°51' E 010°31'0 0.0
2018-Jun-14 07:30N 54°51' E 010°31'0 0.0
2018-Jun-14 07:00N 54°51' E 010°31'0 0.0
2018-Jun-14 06:24N 54°51' E 010°31'0 0.0
2018-Jun-14 06:00N 54°51' E 010°31'0 0.0
2018-Jun-14 05:27N 54°51' E 010°31'0 0.0
2018-Jun-14 05:00N 54°51' E 010°31'0 0.0
2018-Jun-14 04:30N 54°51' E 010°31'0 0.0
2018-Jun-14 04:00N 54°51' E 010°31'0 0.0
2018-Jun-14 03:30N 54°51' E 010°31'0 0.0
2018-Jun-14 03:00N 54°51' E 010°31'0 0.0
2018-Jun-14 02:30N 54°51' E 010°31'0 0.0
2018-Jun-14 01:57N 54°51' E 010°31'0 0.0
2018-Jun-14 01:30N 54°51' E 010°31'0 0.0
2018-Jun-14 01:00N 54°51' E 010°31'0 0.0
2018-Jun-14 00:30N 54°51' E 010°31'0 0.0
2018-Jun-14 00:00N 54°51' E 010°31'0 0.0
2018-Jun-13 23:27N 54°51' E 010°31'0 0.0
2018-Jun-13 23:00N 54°51' E 010°31'0 0.0
2018-Jun-13 22:30N 54°51' E 010°31'0 0.0
2018-Jun-13 22:00N 54°51' E 010°31'0 0.0
2018-Jun-13 21:30N 54°51' E 010°31'0 0.0
2018-Jun-13 21:00N 54°51' E 010°31'0 0.0
2018-Jun-13 20:30N 54°51' E 010°31'0 0.0
2018-Jun-13 19:57N 54°51' E 010°31'0 0.0
2018-Jun-13 19:30N 54°51' E 010°31'0 0.0
2018-Jun-13 19:00N 54°51' E 010°31'0 0.0
2018-Jun-13 18:30N 54°51' E 010°31'0 0.0
2018-Jun-13 17:57N 54°51' E 010°31'0 0.0
2018-Jun-13 17:30N 54°51' E 010°31'0 0.0
2018-Jun-13 17:00N 54°51' E 010°31'0 0.0
2018-Jun-13 16:27N 54°51' E 010°31'0 0.0
2018-Jun-13 16:00N 54°51' E 010°31'0 0.0
2018-Jun-13 15:30N 54°51' E 010°31'0 0.0
2018-Jun-13 14:57N 54°51' E 010°31'0 0.0
2018-Jun-13 14:30N 54°51' E 010°31'0 0.0
2018-Jun-13 14:00N 54°51' E 010°31'0 0.0
2018-Jun-13 13:30N 54°51' E 010°31'0 0.0
2018-Jun-13 13:00N 54°51' E 010°31'0 0.0
2018-Jun-13 12:30N 54°51' E 010°31'0 0.0
2018-Jun-13 12:00N 54°51' E 010°31'0 0.0
2018-Jun-13 11:31N 54°51' E 010°31'1 1.0
2018-Jun-13 11:00N 54°52' E 010°31'1 2.8
2018-Jun-13 10:30N 54°52' E 010°33'1 2.2
2018-Jun-13 10:01N 54°53' E 010°33'2 3.6
2018-Jun-13 09:30N 54°55' E 010°31'2 3.9
2018-Jun-13 09:00N 54°56' E 010°29'2 3.5
2018-Jun-13 08:29N 54°58' E 010°27'0 0.5
2018-Jun-13 07:59N 54°58' E 010°26'0 0.0
2018-Jun-13 07:31N 54°58' E 010°26'0 0.0
2018-Jun-13 07:00N 54°58' E 010°26'0 0.0
2018-Jun-13 06:30N 54°58' E 010°26'0 0.0
2018-Jun-13 06:01N 54°58' E 010°26'0 0.0
2018-Jun-13 05:30N 54°58' E 010°26'0 0.0
2018-Jun-13 05:00N 54°58' E 010°26'0 0.0
2018-Jun-13 04:31N 54°58' E 010°26'0 0.0
2018-Jun-13 04:00N 54°58' E 010°26'0 0.0
2018-Jun-13 03:31N 54°58' E 010°26'0 0.0
2018-Jun-13 03:01N 54°58' E 010°26'0 0.0
2018-Jun-13 02:30N 54°58' E 010°26'0 0.0
2018-Jun-13 02:01N 54°58' E 010°26'0 0.0
2018-Jun-13 01:31N 54°58' E 010°26'0 0.0
2018-Jun-13 01:00N 54°58' E 010°26'0 0.0
2018-Jun-13 00:30N 54°58' E 010°26'0 0.0
2018-Jun-13 00:01N 54°58' E 010°26'0 0.0
2018-Jun-12 23:31N 54°58' E 010°26'0 0.0
2018-Jun-12 23:00N 54°58' E 010°26'0 0.0
2018-Jun-12 22:31N 54°58' E 010°26'0 0.0
2018-Jun-12 22:01N 54°58' E 010°26'0 0.0
2018-Jun-12 21:31N 54°58' E 010°26'0 0.0
2018-Jun-12 21:00N 54°58' E 010°26'0 0.0
2018-Jun-12 20:30N 54°58' E 010°26'0 0.0
2018-Jun-12 20:00N 54°58' E 010°26'0 0.0
2018-Jun-12 18:56N 54°58' E 010°26'0 0.0
2018-Jun-12 18:31N 54°58' E 010°26'0 0.0
2018-Jun-12 18:00N 54°58' E 010°26'0 0.0
2018-Jun-12 17:30N 54°58' E 010°26'0 0.0
2018-Jun-12 17:00N 54°58' E 010°26'0 0.0
2018-Jun-12 16:31N 54°58' E 010°26'0 0.8
2018-Jun-12 16:01N 54°58' E 010°27'2 4.4
2018-Jun-12 15:30N 54°59' E 010°30'2 3.4
2018-Jun-12 15:01N 55°01' E 010°30'1 3.0
2018-Jun-12 14:31N 54°60' E 010°30'2 4.5
2018-Jun-12 13:59N 54°58' E 010°27'  
2018-Jun-10 08:25N 54°22' E 010°09'0 0.0
2018-Jun-10 07:55N 54°22' E 010°09'0 0.0
2018-Jun-10 07:19N 54°22' E 010°09'0 0.0
2018-Jun-10 04:40N 54°22' E 010°09'0 0.0
2018-Jun-10 04:16N 54°22' E 010°09'0 0.0
2018-Jun-10 03:19N 54°22' E 010°09'0 0.0
2018-Jun-10 02:55N 54°22' E 010°09'0 0.0
2018-Jun-10 02:28N 54°22' E 010°09'0 0.0
2018-Jun-10 01:58N 54°22' E 010°09'0 0.0
2018-Jun-10 01:19N 54°22' E 010°09'0 0.0
2018-Jun-10 00:58N 54°22' E 010°09'0 0.0
2018-Jun-10 00:22N 54°22' E 010°09'0 0.0
2018-Jun-09 23:55N 54°22' E 010°09'0 0.0
2018-Jun-09 23:28N 54°22' E 010°09'0 0.0
2018-Jun-09 22:58N 54°22' E 010°09'0 0.0
2018-Jun-09 22:19N 54°22' E 010°09'0 0.0
2018-Jun-09 21:52N 54°22' E 010°09'0 0.0
2018-Jun-09 21:28N 54°22' E 010°09'0 0.0
2018-Jun-09 20:07N 54°22' E 010°09'0 0.0
2018-Jun-09 19:58N 54°22' E 010°09'0 0.0
2018-Jun-09 19:25N 54°22' E 010°09'0 0.0
2018-Jun-09 06:49N 54°22' E 010°09'0 0.0
2018-Jun-09 06:13N 54°22' E 010°09'0 0.0
2018-Jun-09 05:10N 54°22' E 010°09'0 0.0
2018-Jun-09 04:31N 54°22' E 010°09'0 0.0
2018-Jun-09 04:19N 54°22' E 010°09'0 0.0
2018-Jun-09 03:55N 54°22' E 010°09'0 0.0
2018-Jun-09 03:28N 54°22' E 010°09'0 0.0
2018-Jun-09 02:58N 54°22' E 010°09'0 0.0
2018-Jun-09 02:22N 54°22' E 010°09'0 0.0
2018-Jun-09 01:58N 54°22' E 010°09'0 0.0
2018-Jun-09 01:28N 54°22' E 010°09'0 0.0
2018-Jun-09 00:55N 54°22' E 010°09'0 0.0
2018-Jun-09 00:28N 54°22' E 010°09'0 0.0
2018-Jun-08 23:34N 54°22' E 010°09'0 0.0
2018-Jun-08 23:19N 54°22' E 010°09'0 0.0
2018-Jun-08 22:58N 54°22' E 010°09'0 0.0
2018-Jun-08 04:16N 54°22' E 010°09'0 0.0
2018-Jun-08 03:55N 54°22' E 010°09'0 0.0
2018-Jun-08 03:28N 54°22' E 010°09'0 0.0
2018-Jun-08 02:55N 54°22' E 010°09'0 0.0
2018-Jun-08 02:28N 54°22' E 010°09'0 0.0
2018-Jun-08 00:37N 54°22' E 010°09'0 0.0
2018-Jun-08 00:28N 54°22' E 010°09'0 0.0
2018-Jun-07 23:58N 54°22' E 010°09'0 0.0
2018-Jun-07 23:28N 54°22' E 010°09'0 0.0
2018-Jun-07 22:55N 54°22' E 010°09'0 0.0
2018-Jun-07 21:55N 54°22' E 010°09'0 0.0
2018-Jun-07 05:43N 54°22' E 010°09'0 0.0
2018-Jun-07 03:25N 54°22' E 010°09'0 0.0
2018-Jun-07 02:43N 54°22' E 010°09'0 0.0
2018-Jun-07 01:55N 54°22' E 010°09'0 0.0
2018-Jun-07 00:52N 54°22' E 010°09'0 0.0
2018-Jun-07 00:19N 54°22' E 010°09'0 0.0
2018-Jun-06 23:49N 54°22' E 010°09'0 0.0
2018-Jun-06 23:22N 54°22' E 010°09'0 0.0
2018-Jun-06 22:52N 54°22' E 010°09'0 0.0
2018-Jun-06 22:13N 54°22' E 010°09'0 0.0
2018-Jun-06 21:52N 54°22' E 010°09'0 0.0
2018-Jun-06 21:28N 54°22' E 010°09'0 0.0
2018-Jun-06 07:28N 54°22' E 010°09'0 0.0
2018-Jun-06 06:46N 54°22' E 010°09'0 0.0
2018-Jun-06 06:31N 54°22' E 010°09'0 0.0
2018-Jun-06 06:01N 54°22' E 010°09'  

Dump ship's entire track history